Hlavní strana
METAR-TAF:

METAR-TAF

Letiště :

Tulln an der Donau, Rakousko

Letecká základna

zeměpisná šířka: 48-19N, zeměpisná délka: 016-07E, výška: 175 m

METAR: chybějící

Čas: 12:25 (11:25 UTC)

Předpověď počasí

Zpráva byla vytvořena před 10 minutami, v 11:15 UTC
Předpověď platná od 20 v 12 UTC do 20 v 21 UTC
Severovýchodní vítr 5 kt
Viditelnost: 4000 m
Polojasno ve výšce 600 ft
Oblačno až skoro zataženo ve výšce 1500 ft
slabé sněžení, kouřmo
Dočasný
od 20 v 12 UTC do 20 v 21 UTC
Viditelnost: 0800 m
Oblačno až skoro zataženo ve výšce 600 ft
sníh

TAF: LOXT 201115Z 2012/2021 04005KT 4000 -SN BR SCT006 BKN015 TEMPO 2012/2021 0800 SN BKN006

Stav a předpovědi počasí z více než 4 000 letišť (zprávy METAR a TAF).

Červené a žluté tečky na mapě představují dostupné meteorologické stanice.

Když kurzor umístíte na tečku, zobrazí se název stanice.

Pak kliknutím zobrazíte stav a předpověď počasí.

Chcete-li změnit mapu, kliknutím na zelené tlačítko se znaménkem +mapu přiblížíte, kliknutím na zelené tlačítko se znaménkem – mapu oddálíte a kliknutím na zelené šipky přejdete na sousední mapy.


METAR-TAF: